createdAt,value
2023-04-27T00:00:44.366Z,101316.06
2023-04-27T00:03:12.136Z,101322.00
2023-04-27T00:05:39.728Z,101322.91
2023-04-27T00:08:07.281Z,101322.88
2023-04-27T00:10:34.252Z,101325.66
2023-04-27T00:13:01.702Z,101324.97
2023-04-27T00:15:28.899Z,101322.91
2023-04-27T00:17:55.812Z,101322.09
2023-04-27T00:20:22.432Z,101323.06
2023-04-27T00:22:49.096Z,101320.47
2023-04-27T00:25:15.759Z,101321.19
2023-04-27T00:27:42.397Z,101323.75
2023-04-27T00:30:09.627Z,101317.72
2023-04-27T00:32:36.270Z,101324.69
2023-04-27T00:35:02.833Z,101322.91
2023-04-27T00:37:29.499Z,101328.22
2023-04-27T00:39:56.287Z,101328.38
2023-04-27T00:42:24.952Z,101330.56
2023-04-27T00:44:51.650Z,101327.81
2023-04-27T00:47:18.313Z,101333.13
2023-04-27T00:49:45.100Z,101335.22
2023-04-27T00:52:11.755Z,101323.75
2023-04-27T00:54:38.875Z,101332.97
2023-04-27T00:57:05.692Z,101340.72
2023-04-27T00:59:32.295Z,101340.13
2023-04-27T01:01:59.699Z,101339.47
2023-04-27T01:04:27.111Z,101344.50
2023-04-27T01:06:54.169Z,101351.56
2023-04-27T01:09:21.437Z,101349.16
2023-04-27T01:11:49.776Z,101353.84
2023-04-27T01:14:17.301Z,101345.88
2023-04-27T01:16:44.365Z,101361.38
2023-04-27T01:19:11.271Z,101356.34
2023-04-27T01:21:38.218Z,101365.78
2023-04-27T01:24:08.551Z,101371.75
2023-04-27T01:26:37.410Z,101365.47
2023-04-27T01:29:04.069Z,101374.97
2023-04-27T01:31:31.196Z,101374.00
2023-04-27T01:33:57.777Z,101377.56
2023-04-27T01:36:24.410Z,101374.97
2023-04-27T01:38:51.558Z,101380.22
2023-04-27T01:41:18.168Z,101375.50
2023-04-27T01:43:44.772Z,101380.50
2023-04-27T01:46:13.121Z,101386.94
2023-04-27T01:48:40.674Z,101389.44
2023-04-27T01:51:07.393Z,101389.06
2023-04-27T01:53:34.271Z,101386.34
2023-04-27T01:56:01.077Z,101391.56
2023-04-27T01:58:28.219Z,101398.25
2023-04-27T02:00:55.084Z,101394.25
2023-04-27T02:03:22.197Z,101392.00
2023-04-27T02:05:50.412Z,101395.25
2023-04-27T02:08:17.002Z,101397.75
2023-04-27T02:10:44.679Z,101404.91
2023-04-27T02:13:11.299Z,101400.25
2023-04-27T02:15:37.929Z,101400.38
2023-04-27T02:18:04.640Z,101394.84
2023-04-27T02:20:32.269Z,101403.53
2023-04-27T02:23:01.427Z,101404.31
2023-04-27T02:25:28.116Z,101411.06
2023-04-27T02:27:55.178Z,101399.25
2023-04-27T02:30:22.334Z,101403.13
2023-04-27T02:32:49.702Z,101408.28
2023-04-27T02:35:16.441Z,101417.19
2023-04-27T02:37:43.130Z,101409.97
2023-04-27T02:40:10.676Z,101410.41
2023-04-27T02:42:38.894Z,101412.16
2023-04-27T02:45:08.797Z,101406.69
2023-04-27T02:47:36.412Z,101408.88
2023-04-27T02:50:03.787Z,101408.53
2023-04-27T02:52:33.950Z,101408.75
2023-04-27T02:55:00.604Z,101402.72
2023-04-27T02:57:27.883Z,101409.63
2023-04-27T02:59:54.393Z,101399.97
2023-04-27T03:02:21.070Z,101408.03
2023-04-27T03:04:47.728Z,101405.91
2023-04-27T03:07:14.430Z,101404.91
2023-04-27T03:09:41.046Z,101408.50
2023-04-27T03:12:07.609Z,101393.81
2023-04-27T03:14:34.207Z,101398.47
2023-04-27T03:17:00.955Z,101392.16
2023-04-27T03:19:27.782Z,101392.59
2023-04-27T03:21:54.318Z,101380.78
2023-04-27T03:24:21.810Z,101388.19
2023-04-27T03:26:49.507Z,101384.63
2023-04-27T03:29:16.207Z,101387.50
2023-04-27T03:31:42.882Z,101390.50
2023-04-27T03:34:09.581Z,101382.81
2023-04-27T03:36:38.819Z,101386.16
2023-04-27T03:39:05.467Z,101388.41
2023-04-27T03:41:32.057Z,101389.72
2023-04-27T03:43:58.650Z,101395.50
2023-04-27T03:46:25.742Z,101389.50
2023-04-27T03:48:52.651Z,101388.94
2023-04-27T03:51:19.805Z,101385.94
2023-04-27T03:53:46.812Z,101389.91
2023-04-27T03:56:13.763Z,101393.84
2023-04-27T03:58:40.325Z,101390.66
2023-04-27T04:01:18.775Z,101401.00
2023-04-27T04:03:46.158Z,101395.44
2023-04-27T04:06:12.956Z,101391.59
2023-04-27T04:08:39.616Z,101399.56
2023-04-27T04:11:06.143Z,101410.56
2023-04-27T04:13:35.972Z,101413.75
2023-04-27T04:16:07.918Z,101417.28
2023-04-27T04:18:36.120Z,101421.25
2023-04-27T04:21:03.724Z,101411.09
2023-04-27T04:23:30.377Z,101412.47
2023-04-27T04:25:57.731Z,101416.22
2023-04-27T04:28:27.551Z,101422.69
2023-04-27T04:30:54.336Z,101427.19
2023-04-27T04:33:21.409Z,101421.38
2023-04-27T04:35:48.666Z,101435.34
2023-04-27T04:38:15.535Z,101428.53
2023-04-27T04:40:44.455Z,101436.22
2023-04-27T04:43:13.400Z,101435.69
2023-04-27T04:45:41.910Z,101439.25
2023-04-27T04:48:08.617Z,101442.00
2023-04-27T04:50:35.940Z,101444.00
2023-04-27T04:53:02.818Z,101436.41
2023-04-27T04:55:29.512Z,101441.19
2023-04-27T04:57:56.093Z,101442.72
2023-04-27T05:00:22.867Z,101447.28
2023-04-27T05:02:49.907Z,101447.72
2023-04-27T05:05:16.839Z,101447.56
2023-04-27T05:07:43.437Z,101445.59
2023-04-27T05:10:10.603Z,101450.25
2023-04-27T05:12:37.332Z,101447.50
2023-04-27T05:15:04.864Z,101453.41
2023-04-27T05:17:31.755Z,101443.44
2023-04-27T05:19:58.380Z,101449.06
2023-04-27T05:22:24.911Z,101451.00
2023-04-27T05:24:52.008Z,101448.69
2023-04-27T05:27:18.567Z,101453.84
2023-04-27T05:29:45.114Z,101456.59
2023-04-27T05:32:11.747Z,101452.28
2023-04-27T05:34:38.337Z,101455.16
2023-04-27T05:37:04.910Z,101463.53
2023-04-27T05:39:31.493Z,101462.47
2023-04-27T05:41:58.074Z,101466.75
2023-04-27T05:44:28.524Z,101469.47
2023-04-27T05:46:56.197Z,101474.03
2023-04-27T05:49:23.530Z,101473.06
2023-04-27T05:51:50.241Z,101477.00
2023-04-27T05:54:16.784Z,101468.53
2023-04-27T05:56:43.432Z,101477.31
2023-04-27T05:59:10.218Z,101483.06
2023-04-27T06:01:36.927Z,101481.50
2023-04-27T06:04:04.148Z,101475.50
2023-04-27T06:06:35.271Z,101474.69
2023-04-27T06:09:01.933Z,101479.06
2023-04-27T06:11:28.736Z,101470.31
2023-04-27T06:13:55.451Z,101477.81
2023-04-27T06:16:22.085Z,101479.78
2023-04-27T06:18:50.855Z,101479.69
2023-04-27T06:21:17.759Z,101480.09
2023-04-27T06:23:44.514Z,101468.66
2023-04-27T06:26:11.443Z,101467.59
2023-04-27T06:28:38.238Z,101473.31
2023-04-27T06:31:06.303Z,101480.81
2023-04-27T06:33:33.485Z,101486.38
2023-04-27T06:36:01.764Z,101485.81
2023-04-27T06:38:28.458Z,101483.44
2023-04-27T06:40:55.092Z,101490.44
2023-04-27T06:43:21.851Z,101480.25
2023-04-27T06:45:48.468Z,101479.47
2023-04-27T06:48:15.171Z,101484.31
2023-04-27T06:50:42.010Z,101486.19
2023-04-27T06:53:08.781Z,101487.19
2023-04-27T06:55:35.675Z,101485.75
2023-04-27T06:58:03.474Z,101491.88
2023-04-27T07:00:30.893Z,101494.16
2023-04-27T07:02:57.610Z,101493.94
2023-04-27T07:05:24.340Z,101497.53
2023-04-27T07:07:51.135Z,101489.34
2023-04-27T07:10:17.915Z,101482.97
2023-04-27T07:12:44.708Z,101472.13
2023-04-27T07:15:11.400Z,101475.31
2023-04-27T07:17:38.270Z,101463.66
2023-04-27T07:20:06.333Z,101473.72
2023-04-27T07:22:33.508Z,101475.63
2023-04-27T07:25:00.150Z,101469.34
2023-04-27T07:27:27.434Z,101470.44
2023-04-27T07:29:54.703Z,101478.00
2023-04-27T07:32:21.960Z,101471.19
2023-04-27T07:34:53.602Z,101472.88
2023-04-27T07:37:21.707Z,101464.03
2023-04-27T07:39:54.802Z,101465.19
2023-04-27T07:42:24.979Z,101466.97
2023-04-27T07:44:52.384Z,101465.66
2023-04-27T07:47:18.955Z,101454.97
2023-04-27T07:49:51.683Z,101467.13
2023-04-27T07:52:20.420Z,101466.78
2023-04-27T07:54:46.975Z,101464.94
2023-04-27T07:57:13.555Z,101461.22
2023-04-27T07:59:40.219Z,101456.72
2023-04-27T08:02:19.235Z,101461.50
2023-04-27T08:04:48.231Z,101463.16
2023-04-27T08:07:17.253Z,101465.94
2023-04-27T08:09:44.297Z,101462.91
2023-04-27T08:12:10.995Z,101462.91
2023-04-27T08:14:37.555Z,101464.47
2023-04-27T08:17:05.205Z,101461.31
2023-04-27T08:19:31.825Z,101467.75
2023-04-27T08:21:58.372Z,101466.50
2023-04-27T08:24:24.937Z,101461.44
2023-04-27T08:26:51.448Z,101466.13
2023-04-27T08:29:26.901Z,101468.94
2023-04-27T08:31:59.744Z,101463.22
2023-04-27T08:34:27.323Z,101465.00
2023-04-27T08:36:54.273Z,101462.50
2023-04-27T08:39:21.667Z,101470.53
2023-04-27T08:41:48.235Z,101468.94
2023-04-27T08:44:14.821Z,101463.09
2023-04-27T08:46:41.751Z,101456.63
2023-04-27T08:49:08.472Z,101449.69
2023-04-27T08:51:35.427Z,101463.97
2023-04-27T08:54:02.386Z,101454.59
2023-04-27T08:56:30.120Z,101457.50
2023-04-27T08:58:58.191Z,101455.53
2023-04-27T09:01:26.242Z,101460.81
2023-04-27T09:04:00.697Z,101455.84
2023-04-27T09:06:35.437Z,101462.69
2023-04-27T09:09:03.934Z,101461.81
2023-04-27T09:11:33.714Z,101463.56
2023-04-27T09:14:03.130Z,101451.75
2023-04-27T09:16:31.188Z,101449.41
2023-04-27T09:18:58.956Z,101453.78
2023-04-27T09:21:31.226Z,101443.50
2023-04-27T09:23:58.088Z,101454.63
2023-04-27T09:26:27.334Z,101442.22
2023-04-27T09:28:58.282Z,101443.59
2023-04-27T09:31:32.740Z,101443.81
2023-04-27T09:33:59.340Z,101451.34
2023-04-27T09:36:26.601Z,101447.59
2023-04-27T09:38:53.802Z,101453.66
2023-04-27T09:41:21.628Z,101454.97
2023-04-27T09:43:49.352Z,101449.28
2023-04-27T09:46:16.305Z,101444.56
2023-04-27T09:48:43.011Z,101437.88
2023-04-27T09:51:09.766Z,101433.31
2023-04-27T09:53:41.729Z,101435.56
2023-04-27T09:56:33.188Z,101433.06
2023-04-27T09:59:30.810Z,101430.38
2023-04-27T10:02:07.241Z,101421.88
2023-04-27T10:04:59.881Z,101424.06
2023-04-27T10:07:27.691Z,101419.66
2023-04-27T10:09:54.275Z,101419.84
2023-04-27T10:12:26.950Z,101417.78
2023-04-27T10:14:54.809Z,101417.16
2023-04-27T10:17:48.587Z,101416.25
2023-04-27T10:20:15.842Z,101407.94
2023-04-27T10:22:50.111Z,101410.38
2023-04-27T10:25:24.261Z,101410.38
2023-04-27T10:28:01.937Z,101412.69
2023-04-27T10:30:33.806Z,101413.94
2023-04-27T10:33:08.526Z,101409.06
2023-04-27T10:35:40.459Z,101402.97
2023-04-27T10:38:11.085Z,101403.13
2023-04-27T10:40:38.649Z,101394.94
2023-04-27T10:43:29.264Z,101400.81
2023-04-27T10:46:07.436Z,101403.00
2023-04-27T10:48:34.075Z,101397.69
2023-04-27T10:51:01.542Z,101392.44
2023-04-27T10:53:34.268Z,101394.31
2023-04-27T10:56:00.836Z,101393.06
2023-04-27T10:58:37.840Z,101390.31
2023-04-27T11:01:23.863Z,101387.50
2023-04-27T11:03:56.476Z,101382.69
2023-04-27T11:06:23.244Z,101374.03
2023-04-27T11:08:49.845Z,101362.59
2023-04-27T11:11:18.018Z,101360.41
2023-04-27T11:13:44.768Z,101367.81
2023-04-27T11:16:11.556Z,101365.16
2023-04-27T11:18:38.432Z,101357.31
2023-04-27T11:21:14.070Z,101359.06
2023-04-27T11:23:42.732Z,101356.47
2023-04-27T11:26:10.199Z,101351.09
2023-04-27T11:28:37.083Z,101357.03
2023-04-27T11:31:04.608Z,101361.44
2023-04-27T11:33:31.269Z,101357.06
2023-04-27T11:35:58.226Z,101360.38
2023-04-27T11:38:26.606Z,101352.63
2023-04-27T11:41:06.774Z,101351.84
2023-04-27T11:43:33.812Z,101348.44
2023-04-27T11:46:04.613Z,101349.03
2023-04-27T11:48:33.868Z,101352.06
2023-04-27T11:51:01.253Z,101352.19
2023-04-27T11:53:32.111Z,101351.66
2023-04-27T11:56:05.421Z,101346.31
2023-04-27T11:58:36.606Z,101352.41
2023-04-27T12:01:04.560Z,101349.38
2023-04-27T12:03:31.996Z,101344.97
2023-04-27T12:06:11.697Z,101341.88
2023-04-27T12:08:43.139Z,101348.69
2023-04-27T12:11:10.027Z,101349.84
2023-04-27T12:13:36.534Z,101342.09
2023-04-27T12:16:03.126Z,101345.22
2023-04-27T12:18:29.712Z,101339.41
2023-04-27T12:20:56.256Z,101337.53
2023-04-27T12:23:23.139Z,101338.59
2023-04-27T12:25:49.708Z,101345.19
2023-04-27T12:28:19.084Z,101338.38
2023-04-27T12:30:45.888Z,101336.75
2023-04-27T12:33:12.551Z,101335.41
2023-04-27T12:35:39.270Z,101337.19
2023-04-27T12:38:05.837Z,101332.72
2023-04-27T12:40:33.305Z,101335.88
2023-04-27T12:43:01.192Z,101331.25
2023-04-27T12:45:28.172Z,101331.44
2023-04-27T12:48:03.375Z,101321.13
2023-04-27T12:50:33.760Z,101321.38
2023-04-27T12:53:00.703Z,101321.13
2023-04-27T12:55:33.541Z,101315.94
2023-04-27T12:58:01.025Z,101320.41
2023-04-27T13:00:27.751Z,101316.72
2023-04-27T13:02:54.573Z,101314.88
2023-04-27T13:05:22.275Z,101316.81
2023-04-27T13:07:48.985Z,101316.75
2023-04-27T13:10:15.964Z,101321.53
2023-04-27T13:12:42.683Z,101319.88
2023-04-27T13:15:10.048Z,101316.31
2023-04-27T13:17:37.025Z,101310.50
2023-04-27T13:20:04.261Z,101316.88
2023-04-27T13:22:30.819Z,101309.06
2023-04-27T13:24:58.090Z,101303.81
2023-04-27T13:27:28.275Z,101308.06
2023-04-27T13:29:54.997Z,101301.22
2023-04-27T13:32:22.314Z,101295.94
2023-04-27T13:34:49.357Z,101302.00
2023-04-27T13:37:16.615Z,101301.06
2023-04-27T13:39:43.451Z,101287.50
2023-04-27T13:42:10.296Z,101297.16
2023-04-27T13:44:36.886Z,101300.69
2023-04-27T13:47:03.511Z,101303.34
2023-04-27T13:49:30.284Z,101293.63
2023-04-27T13:51:56.910Z,101291.91
2023-04-27T13:54:23.467Z,101288.53
2023-04-27T13:56:50.228Z,101286.16
2023-04-27T13:59:17.221Z,101277.63
2023-04-27T14:01:43.930Z,101280.34
2023-04-27T14:04:13.745Z,101274.88
2023-04-27T14:06:40.527Z,101265.09
2023-04-27T14:09:07.131Z,101260.06
2023-04-27T14:11:42.152Z,101264.44
2023-04-27T14:14:16.010Z,101257.38
2023-04-27T14:16:42.628Z,101266.16
2023-04-27T14:19:10.450Z,101256.66
2023-04-27T14:21:37.015Z,101257.34
2023-04-27T14:24:03.750Z,101265.59
2023-04-27T14:26:30.359Z,101259.31
2023-04-27T14:29:13.425Z,101256.78
2023-04-27T14:31:41.046Z,101254.28
2023-04-27T14:34:08.372Z,101245.72
2023-04-27T14:36:35.053Z,101248.66
2023-04-27T14:39:01.650Z,101249.63
2023-04-27T14:41:28.528Z,101250.47
2023-04-27T14:43:55.122Z,101243.53
2023-04-27T14:46:22.062Z,101240.06
2023-04-27T14:48:49.704Z,101240.91
2023-04-27T14:51:16.933Z,101234.69
2023-04-27T14:53:44.196Z,101232.91
2023-04-27T14:56:11.453Z,101234.81
2023-04-27T14:58:38.646Z,101227.81
2023-04-27T15:01:06.034Z,101239.13
2023-04-27T15:03:33.326Z,101237.34
2023-04-27T15:06:02.164Z,101231.25
2023-04-27T15:08:30.737Z,101227.69
2023-04-27T15:11:00.018Z,101236.84
2023-04-27T15:13:27.851Z,101227.59
2023-04-27T15:15:59.190Z,101231.25
2023-04-27T15:18:25.971Z,101234.75
2023-04-27T15:20:53.875Z,101226.78
2023-04-27T15:23:21.593Z,101218.88
2023-04-27T15:25:48.862Z,101216.16
2023-04-27T15:28:18.648Z,101226.66
2023-04-27T15:30:45.376Z,101228.16
2023-04-27T15:33:13.385Z,101223.91
2023-04-27T15:35:40.555Z,101223.66
2023-04-27T15:38:08.471Z,101217.38
2023-04-27T15:40:35.489Z,101211.09
2023-04-27T15:43:02.184Z,101205.16
2023-04-27T15:45:29.299Z,101204.22
2023-04-27T15:47:56.258Z,101201.81
2023-04-27T15:50:23.590Z,101194.75
2023-04-27T15:52:50.619Z,101202.09
2023-04-27T15:55:17.208Z,101195.72
2023-04-27T15:57:43.741Z,101199.38
2023-04-27T16:00:11.835Z,101194.28
2023-04-27T16:02:39.687Z,101197.59
2023-04-27T16:05:07.984Z,101194.81
2023-04-27T16:07:36.542Z,101194.13
2023-04-27T16:10:04.153Z,101192.53
2023-04-27T16:12:31.080Z,101184.84
2023-04-27T16:14:58.023Z,101179.59
2023-04-27T16:17:29.337Z,101195.94
2023-04-27T16:19:56.103Z,101189.72
2023-04-27T16:22:23.053Z,101187.81
2023-04-27T16:24:50.415Z,101182.44
2023-04-27T16:27:17.905Z,101180.59
2023-04-27T16:29:44.939Z,101176.97
2023-04-27T16:32:11.881Z,101173.47
2023-04-27T16:34:38.601Z,101165.97
2023-04-27T16:37:05.612Z,101162.47
2023-04-27T16:39:32.948Z,101163.34
2023-04-27T16:41:59.486Z,101151.25
2023-04-27T16:44:26.180Z,101148.53
2023-04-27T16:46:52.738Z,101151.06
2023-04-27T16:49:19.465Z,101151.13
2023-04-27T16:51:46.067Z,101157.97
2023-04-27T16:54:16.184Z,101152.72
2023-04-27T16:56:42.838Z,101151.06
2023-04-27T16:59:12.176Z,101159.84
2023-04-27T17:01:39.262Z,101150.22
2023-04-27T17:04:06.123Z,101155.53
2023-04-27T17:06:33.127Z,101152.91
2023-04-27T17:08:59.701Z,101150.13
2023-04-27T17:11:26.460Z,101155.38
2023-04-27T17:13:53.153Z,101146.78
2023-04-27T17:16:20.116Z,101143.91
2023-04-27T17:18:47.099Z,101142.09
2023-04-27T17:21:13.783Z,101137.53
2023-04-27T17:23:43.256Z,101136.66
2023-04-27T17:26:10.623Z,101141.75
2023-04-27T17:28:37.240Z,101138.41
2023-04-27T17:31:03.871Z,101141.72
2023-04-27T17:33:30.577Z,101137.31
2023-04-27T17:35:57.218Z,101132.03
2023-04-27T17:38:23.773Z,101131.34
2023-04-27T17:40:50.633Z,101133.81
2023-04-27T17:43:17.285Z,101128.44
2023-04-27T17:45:43.886Z,101130.19
2023-04-27T17:48:10.548Z,101130.69
2023-04-27T17:50:38.610Z,101136.06
2023-04-27T17:53:05.171Z,101126.38
2023-04-27T17:55:32.252Z,101119.53
2023-04-27T17:57:58.946Z,101129.97
2023-04-27T18:00:25.726Z,101121.94
2023-04-27T18:02:52.540Z,101118.47
2023-04-27T18:05:19.281Z,101115.66
2023-04-27T18:07:49.963Z,101117.44
2023-04-27T18:10:16.597Z,101124.22
2023-04-27T18:12:43.254Z,101121.38
2023-04-27T18:15:10.510Z,101114.34
2023-04-27T18:17:37.120Z,101111.94
2023-04-27T18:20:09.838Z,101109.25
2023-04-27T18:22:39.303Z,101111.91
2023-04-27T18:25:06.306Z,101111.81
2023-04-27T18:27:32.997Z,101112.53
2023-04-27T18:29:59.696Z,101109.63
2023-04-27T18:32:26.287Z,101113.97
2023-04-27T18:34:53.271Z,101112.25
2023-04-27T18:37:19.840Z,101109.59
2023-04-27T18:39:46.617Z,101103.41
2023-04-27T18:42:13.147Z,101106.00
2023-04-27T18:44:40.228Z,101113.81
2023-04-27T18:47:07.964Z,101104.09
2023-04-27T18:49:34.604Z,101110.97
2023-04-27T18:52:01.381Z,101108.06
2023-04-27T18:54:27.962Z,101115.09
2023-04-27T18:56:54.502Z,101115.94
2023-04-27T18:59:21.088Z,101114.84
2023-04-27T19:01:47.924Z,101118.41
2023-04-27T19:04:14.866Z,101106.09
2023-04-27T19:06:41.552Z,101107.56
2023-04-27T19:09:33.960Z,101108.56
2023-04-27T19:12:03.394Z,101110.66
2023-04-27T19:14:31.444Z,101111.25
2023-04-27T19:16:58.154Z,101106.97
2023-04-27T19:19:25.806Z,101112.94
2023-04-27T19:21:52.533Z,101119.75
2023-04-27T19:24:19.141Z,101117.06
2023-04-27T19:26:46.796Z,101124.00
2023-04-27T19:29:13.535Z,101124.69
2023-04-27T19:31:40.349Z,101128.94
2023-04-27T19:34:07.004Z,101127.41
2023-04-27T19:36:33.640Z,101123.84
2023-04-27T19:39:00.221Z,101116.94
2023-04-27T19:41:26.830Z,101125.66
2023-04-27T19:43:53.393Z,101121.22
2023-04-27T19:46:20.039Z,101118.53
2023-04-27T19:48:46.760Z,101114.97
2023-04-27T19:51:13.377Z,101109.75
2023-04-27T19:53:40.015Z,101112.19
2023-04-27T19:56:07.342Z,101110.47
2023-04-27T19:58:35.722Z,101107.88
2023-04-27T20:01:02.915Z,101100.91
2023-04-27T20:03:30.308Z,101100.81
2023-04-27T20:05:57.081Z,101104.13
2023-04-27T20:08:23.760Z,101107.47
2023-04-27T20:10:50.399Z,101096.72
2023-04-27T20:13:16.966Z,101095.94
2023-04-27T20:15:44.399Z,101087.31
2023-04-27T20:18:11.211Z,101097.56
2023-04-27T20:20:37.879Z,101080.38
2023-04-27T20:23:04.510Z,101074.97
2023-04-27T20:25:32.748Z,101082.06
2023-04-27T20:27:59.316Z,101076.59
2023-04-27T20:30:27.681Z,101079.03
2023-04-27T20:32:55.258Z,101073.88
2023-04-27T20:35:22.278Z,101070.69
2023-04-27T20:37:48.861Z,101069.44
2023-04-27T20:40:17.878Z,101058.50
2023-04-27T20:42:45.632Z,101060.78
2023-04-27T20:45:12.754Z,101055.78
2023-04-27T20:47:39.333Z,101048.91
2023-04-27T20:50:07.770Z,101049.91
2023-04-27T20:52:34.835Z,101043.44
2023-04-27T20:55:02.740Z,101049.66
2023-04-27T20:57:29.380Z,101044.25
2023-04-27T20:59:56.066Z,101044.09
2023-04-27T21:02:22.769Z,101045.56
2023-04-27T21:04:49.534Z,101042.00
2023-04-27T21:07:16.178Z,101037.72
2023-04-27T21:09:42.770Z,101048.91
2023-04-27T21:12:09.569Z,101046.34
2023-04-27T21:14:36.349Z,101048.84
2023-04-27T21:17:03.050Z,101042.84
2023-04-27T21:19:29.611Z,101057.88
2023-04-27T21:21:56.289Z,101049.34
2023-04-27T21:24:23.056Z,101039.00
2023-04-27T21:26:49.783Z,101025.94
2023-04-27T21:29:16.465Z,101026.63
2023-04-27T21:31:42.990Z,101034.38
2023-04-27T21:34:09.751Z,101024.13
2023-04-27T21:36:37.162Z,101023.91
2023-04-27T21:39:03.837Z,101014.69
2023-04-27T21:41:30.433Z,101012.84
2023-04-27T21:43:56.951Z,101013.41
2023-04-27T21:46:24.090Z,101006.53
2023-04-27T21:48:50.766Z,101012.78
2023-04-27T21:51:17.413Z,101011.03
2023-04-27T21:53:43.948Z,101008.19
2023-04-27T21:56:10.675Z,100993.44
2023-04-27T21:58:37.259Z,100989.16
2023-04-27T22:01:04.123Z,100982.38
2023-04-27T22:03:30.776Z,100978.81
2023-04-27T22:05:57.609Z,100982.44
2023-04-27T22:08:24.775Z,100972.94
2023-04-27T22:10:51.404Z,100973.72
2023-04-27T22:13:19.426Z,100955.47
2023-04-27T22:15:47.171Z,100963.19
2023-04-27T22:18:14.861Z,100955.56
2023-04-27T22:20:42.587Z,100952.94
2023-04-27T22:23:09.846Z,100953.69
2023-04-27T22:25:36.522Z,100948.75
2023-04-27T22:28:03.153Z,100937.31
2023-04-27T22:30:30.754Z,100943.34
2023-04-27T22:32:57.741Z,100930.31
2023-04-27T22:35:27.611Z,100930.28
2023-04-27T22:38:03.865Z,100925.09
2023-04-27T22:40:30.469Z,100928.63
2023-04-27T22:42:57.074Z,100915.34
2023-04-27T22:45:23.690Z,100911.00
2023-04-27T22:47:50.523Z,100912.78
2023-04-27T22:50:17.131Z,100908.41
2023-04-27T22:52:44.064Z,100904.78
2023-04-27T22:55:12.088Z,100901.44
2023-04-27T22:57:39.769Z,100900.38
2023-04-27T23:00:10.873Z,100906.38
2023-04-27T23:02:38.955Z,100907.34
2023-04-27T23:05:07.051Z,100904.78
2023-04-27T23:07:34.181Z,100904.03
2023-04-27T23:10:02.871Z,100901.34
2023-04-27T23:12:30.760Z,100901.41
2023-04-27T23:14:58.177Z,100893.50
2023-04-27T23:17:30.710Z,100892.56
2023-04-27T23:19:58.827Z,100890.16
2023-04-27T23:22:26.259Z,100881.13
2023-04-27T23:24:53.805Z,100886.38
2023-04-27T23:27:21.488Z,100873.38
2023-04-27T23:29:48.160Z,100875.81
2023-04-27T23:32:14.728Z,100865.56
2023-04-27T23:34:41.345Z,100869.91
2023-04-27T23:37:08.196Z,100871.50
2023-04-27T23:39:34.712Z,100865.56
2023-04-27T23:42:01.804Z,100853.47
2023-04-27T23:44:28.434Z,100851.53
2023-04-27T23:46:55.064Z,100849.72
2023-04-27T23:49:21.723Z,100852.34
2023-04-27T23:51:49.911Z,100849.97
2023-04-27T23:54:16.692Z,100847.25
2023-04-27T23:56:43.480Z,100846.59
2023-04-27T23:59:11.049Z,100837.25
